TimeCDT,TemperatureF,Dew PointF,Humidity,Sea Level PressureIn,VisibilityMPH,Wind Direction,Wind SpeedMPH,Gust SpeedMPH,PrecipitationIn,Events,Conditions,WindDirDegrees,DateUTC
12:15 AM,37.8,25.5,61,30.32,10.0,NE,8.1,-,N/A,,Clear,50,2012-10-12 05:15:00
12:35 AM,37.8,25.7,62,30.32,10.0,NE,6.9,-,N/A,,Clear,50,2012-10-12 05:35:00
12:55 AM,37.2,25.7,63,30.32,10.0,NE,6.9,-,N/A,,Clear,50,2012-10-12 05:55:00
1:15 AM,36.5,25.7,65,30.33,10.0,NE,6.9,-,N/A,,Clear,50,2012-10-12 06:15:00
1:35 AM,35.6,25.7,67,30.33,10.0,NE,4.6,-,N/A,,Clear,50,2012-10-12 06:35:00
1:55 AM,35.2,25.7,68,30.33,10.0,NE,5.8,-,N/A,,Clear,40,2012-10-12 06:55:00
2:15 AM,34.2,25.5,71,30.33,10.0,NNE,3.5,-,N/A,,Clear,30,2012-10-12 07:15:00
2:35 AM,32.9,25.3,74,30.33,10.0,NNE,3.5,-,N/A,,Clear,30,2012-10-12 07:35:00
2:55 AM,32.4,25.3,75,30.33,10.0,NNE,5.8,-,N/A,,Clear,30,2012-10-12 07:55:00
3:15 AM,33.3,25.7,74,30.33,10.0,NNE,4.6,-,N/A,,Clear,30,2012-10-12 08:15:00
3:35 AM,34.2,26.1,72,30.32,10.0,NNE,5.8,-,N/A,,Clear,20,2012-10-12 08:35:00
3:55 AM,34.7,26.1,71,30.32,10.0,NE,4.6,-,N/A,,Clear,40,2012-10-12 08:55:00
4:15 AM,34.7,25.7,70,30.31,10.0,ENE,6.9,-,N/A,,Clear,60,2012-10-12 09:15:00
4:35 AM,34.3,25.7,71,30.31,10.0,ENE,6.9,-,N/A,,Clear,60,2012-10-12 09:35:00
4:55 AM,34.5,25.3,69,30.30,10.0,ENE,6.9,-,N/A,,Clear,60,2012-10-12 09:55:00
5:15 AM,33.1,24.8,72,30.30,10.0,ENE,5.8,-,N/A,,Clear,60,2012-10-12 10:15:00
5:55 AM,32.0,24.6,74,30.29,10.0,ENE,3.5,-,N/A,,Clear,60,2012-10-12 10:55:00
6:15 AM,31.8,24.3,74,30.28,10.0,NE,3.5,-,N/A,,Clear,50,2012-10-12 11:15:00
6:35 AM,31.1,23.9,75,30.28,10.0,NE,4.6,-,N/A,,Clear,50,2012-10-12 11:35:00
6:55 AM,31.1,24.1,75,30.28,10.0,Calm,Calm,-,N/A,,Clear,0,2012-10-12 11:55:00
7:15 AM,30.4,23.4,75,30.28,10.0,Calm,Calm,-,N/A,,Clear,0,2012-10-12 12:15:00
7:35 AM,29.7,23.4,77,30.28,10.0,Calm,Calm,-,N/A,,Clear,0,2012-10-12 12:35:00
7:55 AM,27.7,22.6,81,30.28,10.0,Calm,Calm,-,N/A,,Clear,0,2012-10-12 12:55:00
8:15 AM,29.8,23.9,79,30.28,10.0,Calm,Calm,-,N/A,,Clear,0,2012-10-12 13:15:00
8:35 AM,31.5,25.2,78,30.28,10.0,NE,3.5,-,N/A,,Clear,50,2012-10-12 13:35:00
9:15 AM,35.6,23.5,62,30.28,10.0,East,8.1,-,N/A,,Scattered Clouds,100,2012-10-12 14:15:00
9:35 AM,37.4,23.5,57,30.28,10.0,ESE,9.2,-,N/A,,Scattered Clouds,120,2012-10-12 14:35:00
9:55 AM,38.5,22.8,53,30.28,10.0,ESE,10.4,-,N/A,,Mostly Cloudy,120,2012-10-12 14:55:00
10:15 AM,40.1,23.0,51,30.27,10.0,ESE,10.4,-,N/A,,Overcast,110,2012-10-12 15:15:00
10:35 AM,40.1,22.8,50,30.25,10.0,ESE,11.5,16.1,N/A,,Overcast,110,2012-10-12 15:35:00
11:15 AM,41.2,24.4,51,30.25,10.0,SE,9.2,-,N/A,,Overcast,130,2012-10-12 16:15:00
11:35 AM,41.2,24.6,52,30.24,10.0,SE,9.2,-,N/A,,Overcast,140,2012-10-12 16:35:00
12:15 PM,41.4,29.1,62,30.22,10.0,SE,8.1,-,N/A,,Overcast,130,2012-10-12 17:15:00
12:35 PM,42.1,29.5,61,30.22,10.0,SSE,8.1,-,N/A,,Overcast,150,2012-10-12 17:35:00
12:55 PM,44.1,29.1,56,30.20,10.0,South,12.7,-,N/A,,Overcast,170,2012-10-12 17:55:00
1:35 PM,45.3,31.3,58,30.18,10.0,SSE,15.0,-,N/A,,Overcast,160,2012-10-12 18:35:00
1:55 PM,44.4,31.3,60,30.18,10.0,South,16.1,-,N/A,,Overcast,180,2012-10-12 18:55:00
2:15 PM,44.6,31.8,61,30.16,10.0,South,11.5,-,N/A,,Overcast,170,2012-10-12 19:15:00
2:35 PM,44.6,32.5,63,30.14,10.0,South,15.0,18.4,N/A,,Overcast,170,2012-10-12 19:35:00
2:55 PM,45.5,33.3,62,30.13,10.0,South,13.8,-,N/A,,Overcast,180,2012-10-12 19:55:00
3:15 PM,45.0,33.1,63,30.14,10.0,South,11.5,-,N/A,,Overcast,190,2012-10-12 20:15:00
3:35 PM,47.1,32.7,57,30.12,10.0,South,11.5,-,N/A,,Overcast,190,2012-10-12 20:35:00
3:55 PM,46.6,34.7,63,30.12,10.0,SSW,12.7,-,N/A,,Overcast,200,2012-10-12 20:55:00
4:15 PM,47.5,34.9,62,30.09,10.0,SSW,12.7,-,N/A,,Overcast,210,2012-10-12 21:15:00
4:35 PM,47.3,35.1,62,30.06,10.0,SSE,9.2,-,N/A,,Overcast,150,2012-10-12 21:35:00
5:15 PM,48.2,34.9,60,30.04,10.0,South,9.2,-,N/A,,Overcast,170,2012-10-12 22:15:00
5:55 PM,49.1,34.9,58,30.02,10.0,SSE,9.2,-,N/A,,Overcast,160,2012-10-12 22:55:00
6:15 PM,49.5,35.6,59,30.02,10.0,South,11.5,-,N/A,,Overcast,170,2012-10-12 23:15:00
6:35 PM,49.3,36.9,62,30.01,10.0,SSE,13.8,-,N/A,,Overcast,160,2012-10-12 23:35:00
6:55 PM,49.3,38.3,66,30.01,10.0,SSE,10.4,-,N/A,,Overcast,160,2012-10-12 23:55:00
7:15 PM,49.3,38.3,66,30.00,10.0,SSE,8.1,-,N/A,,Overcast,160,2012-10-13 00:15:00
7:35 PM,49.3,37.8,65,30.01,10.0,SSE,11.5,-,N/A,,Overcast,160,2012-10-13 00:35:00
7:55 PM,49.3,37.8,65,29.99,10.0,SSE,13.8,-,N/A,,Mostly Cloudy,150,2012-10-13 00:55:00
8:15 PM,48.9,38.8,68,29.99,10.0,South,13.8,19.6,N/A,,Clear,170,2012-10-13 01:15:00
8:35 PM,48.6,39.7,72,30.01,10.0,South,13.8,20.7,N/A,,Mostly Cloudy,190,2012-10-13 01:35:00
9:15 PM,47.8,40.6,76,29.99,10.0,South,11.5,-,N/A,,Mostly Cloudy,170,2012-10-13 02:15:00
9:35 PM,47.3,40.6,78,29.98,10.0,South,10.4,-,N/A,,Scattered Clouds,170,2012-10-13 02:35:00
9:55 PM,46.8,41.0,80,29.98,10.0,SSE,9.2,-,N/A,,Clear,160,2012-10-13 02:55:00
10:15 PM,46.4,41.2,82,29.97,10.0,SSE,9.2,-,N/A,,Clear,160,2012-10-13 03:15:00
10:35 PM,45.9,41.0,83,29.96,10.0,South,10.4,-,N/A,,Clear,170,2012-10-13 03:35:00
10:55 PM,45.7,41.0,84,29.95,10.0,South,13.8,-,N/A,,Clear,180,2012-10-13 03:55:00
11:35 PM,45.9,41.4,84,29.92,10.0,South,16.1,21.9,N/A,,Clear,170,2012-10-13 04:35:00
11:55 PM,46.4,42.6,87,29.92,10.0,South,16.1,20.7,N/A,Thunderstorm,Unknown,180,2012-10-13 04:55:00